Upstream stations:
Downstream station:
SHEF ID: IDPK1 VERDIGRIS R AT INDEPENDENCE, KS
STATION TYPE:
Regulating: Stage = 30.00, Flow = 22721
PRECIP STAGE RIV-FLOW BAT-LOAD
in ft cfs volt
Ccp-Rev Ccp-Rev Ccp-Rev Ccp-Rev
(US/Central)
03/26 00:00 0.00 15.75 8879 12.71
03/26 01:00 0.00 15.68 8807 12.71
03/26 02:00 0.00 15.62 8745 12.65
03/26 03:00 0.00 15.55 8672 12.65
03/26 04:00 0.00 15.51 8631 12.65
03/26 05:00 0.00 15.44 8559 12.65
03/26 06:00 0.00 15.36 8476 12.65
03/26 07:00 0.00 15.28 8393 12.60
03/26 08:00 0.00 15.20 8309 12.60
03/26 09:00 0.00 15.09 8195 12.65
03/26 10:00 0.00 14.98 8080 12.77
03/26 11:00 0.00 14.88 7976 13.18
03/26 12:00 0.00 14.75 7840 13.48
03/26 13:00 0.00 14.61 7694 13.48
03/26 14:00 0.00 14.47 7547 13.71
03/26 15:00 0.00 14.32 7389 13.42
03/26 16:00 0.00 14.20 7263 13.48
03/26 17:00 0.00 14.06 7115 13.36
03/26 18:00 0.00 13.92 6967 13.24
03/26 19:00 0.00 13.80 6839 13.12
03/26 20:00 0.00 13.68 6712 12.95
03/26 21:00 0.00 13.58 6605 12.89
03/26 22:00 0.00 13.51 6530 12.83
03/26 23:00 0.00 13.44 6456 12.77